sensor_id;sensor_type;location;lat;lon;timestamp;P1;durP1;ratioP1;P2;durP2;ratioP2
78848;SDS011;68197;41.864;21.942;2023-06-22T00:01:09;12.00;;;10.35;;
78848;SDS011;68197;41.864;21.942;2023-06-22T00:03:35;10.68;;;9.63;;
78848;SDS011;68197;41.864;21.942;2023-06-22T00:06:01;10.90;;;9.88;;
78848;SDS011;68197;41.864;21.942;2023-06-22T00:08:28;12.05;;;10.95;;
78848;SDS011;68197;41.864;21.942;2023-06-22T00:10:54;14.57;;;10.50;;
78848;SDS011;68197;41.864;21.942;2023-06-22T00:13:20;12.88;;;11.30;;
78848;SDS011;68197;41.864;21.942;2023-06-22T00:15:46;12.60;;;11.13;;
78848;SDS011;68197;41.864;21.942;2023-06-22T00:18:12;11.88;;;10.68;;
78848;SDS011;68197;41.864;21.942;2023-06-22T00:20:38;12.57;;;11.38;;
78848;SDS011;68197;41.864;21.942;2023-06-22T00:23:06;11.60;;;10.43;;
78848;SDS011;68197;41.864;21.942;2023-06-22T00:25:38;12.35;;;11.07;;
78848;SDS011;68197;41.864;21.942;2023-06-22T00:28:07;13.55;;;11.18;;
78848;SDS011;68197;41.864;21.942;2023-06-22T00:30:34;12.75;;;11.52;;
78848;SDS011;68197;41.864;21.942;2023-06-22T00:33:00;11.50;;;10.35;;
78848;SDS011;68197;41.864;21.942;2023-06-22T00:35:26;12.95;;;11.15;;
78848;SDS011;68197;41.864;21.942;2023-06-22T00:37:58;16.60;;;11.70;;
78848;SDS011;68197;41.864;21.942;2023-06-22T00:40:28;13.35;;;11.52;;
78848;SDS011;68197;41.864;21.942;2023-06-22T00:42:54;12.05;;;10.85;;
78848;SDS011;68197;41.864;21.942;2023-06-22T00:45:23;11.90;;;10.70;;
78848;SDS011;68197;41.864;21.942;2023-06-22T00:47:53;12.63;;;11.10;;
78848;SDS011;68197;41.864;21.942;2023-06-22T00:50:21;12.10;;;10.98;;
78848;SDS011;68197;41.864;21.942;2023-06-22T00:52:51;13.45;;;11.20;;
78848;SDS011;68197;41.864;21.942;2023-06-22T00:55:18;12.80;;;11.40;;
78848;SDS011;68197;41.864;21.942;2023-06-22T00:57:47;12.27;;;11.07;;
78848;SDS011;68197;41.864;21.942;2023-06-22T01:00:14;12.23;;;11.02;;
78848;SDS011;68197;41.864;21.942;2023-06-22T01:02:42;12.23;;;11.13;;
78848;SDS011;68197;41.864;21.942;2023-06-22T01:05:14;11.75;;;10.65;;
78848;SDS011;68197;41.864;21.942;2023-06-22T01:12:52;16.92;;;15.13;;
78848;SDS011;68197;41.864;21.942;2023-06-22T01:17:45;18.30;;;13.32;;
78848;SDS011;68197;41.864;21.942;2023-06-22T01:20:11;18.25;;;13.75;;
78848;SDS011;68197;41.864;21.942;2023-06-22T01:23:02;14.60;;;13.07;;
78848;SDS011;68197;41.864;21.942;2023-06-22T01:25:46;17.75;;;13.43;;
78848;SDS011;68197;41.864;21.942;2023-06-22T01:28:20;16.17;;;14.48;;
78848;SDS011;68197;41.864;21.942;2023-06-22T01:30:48;17.05;;;15.25;;
78848;SDS011;68197;41.864;21.942;2023-06-22T01:33:15;14.95;;;12.73;;
78848;SDS011;68197;41.864;21.942;2023-06-22T01:35:41;17.50;;;14.10;;
78848;SDS011;68197;41.864;21.942;2023-06-22T01:38:08;16.40;;;14.00;;
78848;SDS011;68197;41.864;21.942;2023-06-22T01:40:34;15.93;;;13.57;;
78848;SDS011;68197;41.864;21.942;2023-06-22T01:43:02;16.52;;;14.82;;
78848;SDS011;68197;41.864;21.942;2023-06-22T01:45:29;15.82;;;14.20;;
78848;SDS011;68197;41.864;21.942;2023-06-22T01:47:55;19.20;;;17.25;;
78848;SDS011;68197;41.864;21.942;2023-06-22T01:50:22;15.80;;;14.00;;
78848;SDS011;68197;41.864;21.942;2023-06-22T01:52:48;15.30;;;13.73;;
78848;SDS011;68197;41.864;21.942;2023-06-22T01:55:14;16.00;;;13.68;;
78848;SDS011;68197;41.864;21.942;2023-06-22T01:57:40;14.73;;;12.55;;
78848;SDS011;68197;41.864;21.942;2023-06-22T02:02:39;14.35;;;12.15;;
78848;SDS011;68197;41.864;21.942;2023-06-22T02:05:07;15.77;;;13.48;;
78848;SDS011;68197;41.864;21.942;2023-06-22T02:07:45;14.70;;;12.75;;
78848;SDS011;68197;41.864;21.942;2023-06-22T02:10:12;17.13;;;14.50;;
78848;SDS011;68197;41.864;21.942;2023-06-22T02:15:06;19.15;;;16.10;;
78848;SDS011;68197;41.864;21.942;2023-06-22T02:17:33;19.85;;;15.57;;
78848;SDS011;68197;41.864;21.942;2023-06-22T02:20:00;17.38;;;15.43;;
78848;SDS011;68197;41.864;21.942;2023-06-22T02:22:27;22.85;;;13.82;;
78848;SDS011;68197;41.864;21.942;2023-06-22T02:24:53;20.40;;;14.40;;
78848;SDS011;68197;41.864;21.942;2023-06-22T02:27:19;19.13;;;15.77;;
78848;SDS011;68197;41.864;21.942;2023-06-22T02:29:45;27.45;;;15.15;;
78848;SDS011;68197;41.864;21.942;2023-06-22T02:32:11;21.23;;;15.18;;
78848;SDS011;68197;41.864;21.942;2023-06-22T02:34:37;20.05;;;18.00;;
78848;SDS011;68197;41.864;21.942;2023-06-22T02:37:03;20.23;;;16.00;;
78848;SDS011;68197;41.864;21.942;2023-06-22T02:39:30;17.00;;;13.43;;
78848;SDS011;68197;41.864;21.942;2023-06-22T02:41:56;21.60;;;16.45;;
78848;SDS011;68197;41.864;21.942;2023-06-22T02:44:22;19.15;;;15.93;;
78848;SDS011;68197;41.864;21.942;2023-06-22T02:46:49;19.50;;;14.43;;
78848;SDS011;68197;41.864;21.942;2023-06-22T02:49:15;16.42;;;14.48;;
78848;SDS011;68197;41.864;21.942;2023-06-22T02:51:45;17.25;;;14.77;;
78848;SDS011;68197;41.864;21.942;2023-06-22T02:54:12;19.50;;;15.98;;
78848;SDS011;68197;41.864;21.942;2023-06-22T02:56:38;19.70;;;15.90;;
78848;SDS011;68197;41.864;21.942;2023-06-22T02:59:09;23.30;;;20.00;;
78848;SDS011;68197;41.864;21.942;2023-06-22T03:01:36;29.02;;;22.75;;
78848;SDS011;68197;41.864;21.942;2023-06-22T03:04:06;25.33;;;21.08;;
78848;SDS011;68197;41.864;21.942;2023-06-22T03:06:32;45.63;;;28.42;;
78848;SDS011;68197;41.864;21.942;2023-06-22T03:08:59;50.38;;;30.30;;
78848;SDS011;68197;41.864;21.942;2023-06-22T03:11:26;55.92;;;33.80;;
78848;SDS011;68197;41.864;21.942;2023-06-22T03:13:52;56.40;;;33.13;;
78848;SDS011;68197;41.864;21.942;2023-06-22T03:16:19;51.25;;;33.80;;
78848;SDS011;68197;41.864;21.942;2023-06-22T03:18:45;52.45;;;34.03;;
78848;SDS011;68197;41.864;21.942;2023-06-22T03:21:11;57.50;;;40.08;;
78848;SDS011;68197;41.864;21.942;2023-06-22T03:23:37;56.42;;;34.35;;
78848;SDS011;68197;41.864;21.942;2023-06-22T03:26:03;45.47;;;29.35;;
78848;SDS011;68197;41.864;21.942;2023-06-22T03:28:29;45.22;;;28.60;;
78848;SDS011;68197;41.864;21.942;2023-06-22T03:30:58;71.53;;;39.05;;
78848;SDS011;68197;41.864;21.942;2023-06-22T03:33:25;80.63;;;46.95;;
78848;SDS011;68197;41.864;21.942;2023-06-22T03:35:51;74.97;;;43.88;;
78848;SDS011;68197;41.864;21.942;2023-06-22T03:38:18;69.03;;;44.90;;
78848;SDS011;68197;41.864;21.942;2023-06-22T03:40:44;60.35;;;35.20;;
78848;SDS011;68197;41.864;21.942;2023-06-22T03:43:11;31.40;;;22.52;;
78848;SDS011;68197;41.864;21.942;2023-06-22T03:45:37;28.60;;;20.90;;
78848;SDS011;68197;41.864;21.942;2023-06-22T03:48:03;23.75;;;21.23;;
78848;SDS011;68197;41.864;21.942;2023-06-22T03:50:29;21.52;;;18.75;;
78848;SDS011;68197;41.864;21.942;2023-06-22T03:52:55;72.72;;;41.80;;
78848;SDS011;68197;41.864;21.942;2023-06-22T03:55:22;73.40;;;42.28;;
78848;SDS011;68197;41.864;21.942;2023-06-22T03:57:48;67.85;;;38.35;;
78848;SDS011;68197;41.864;21.942;2023-06-22T04:00:14;79.50;;;43.92;;
78848;SDS011;68197;41.864;21.942;2023-06-22T04:02:43;94.78;;;53.22;;
78848;SDS011;68197;41.864;21.942;2023-06-22T04:05:09;88.63;;;50.92;;
78848;SDS011;68197;41.864;21.942;2023-06-22T04:07:35;66.15;;;41.38;;
78848;SDS011;68197;41.864;21.942;2023-06-22T04:10:05;80.55;;;45.88;;
78848;SDS011;68197;41.864;21.942;2023-06-22T04:12:31;87.43;;;49.25;;
78848;SDS011;68197;41.864;21.942;2023-06-22T04:14:57;84.80;;;43.75;;
78848;SDS011;68197;41.864;21.942;2023-06-22T04:17:23;82.88;;;47.05;;
78848;SDS011;68197;41.864;21.942;2023-06-22T04:19:50;79.00;;;46.08;;
78848;SDS011;68197;41.864;21.942;2023-06-22T04:22:16;82.85;;;46.38;;
78848;SDS011;68197;41.864;21.942;2023-06-22T04:24:43;94.53;;;52.40;;
78848;SDS011;68197;41.864;21.942;2023-06-22T04:27:10;79.38;;;45.83;;
78848;SDS011;68197;41.864;21.942;2023-06-22T04:29:36;112.43;;;61.17;;
78848;SDS011;68197;41.864;21.942;2023-06-22T04:32:03;111.78;;;60.70;;
78848;SDS011;68197;41.864;21.942;2023-06-22T04:34:30;85.22;;;47.10;;
78848;SDS011;68197;41.864;21.942;2023-06-22T04:36:56;96.85;;;54.00;;
78848;SDS011;68197;41.864;21.942;2023-06-22T04:39:22;73.63;;;41.08;;
78848;SDS011;68197;41.864;21.942;2023-06-22T04:41:49;91.10;;;43.70;;
78848;SDS011;68197;41.864;21.942;2023-06-22T04:44:17;67.60;;;38.92;;
78848;SDS011;68197;41.864;21.942;2023-06-22T04:46:53;75.53;;;37.05;;
78848;SDS011;68197;41.864;21.942;2023-06-22T04:49:20;67.40;;;37.45;;
78848;SDS011;68197;41.864;21.942;2023-06-22T04:51:47;58.03;;;33.88;;
78848;SDS011;68197;41.864;21.942;2023-06-22T04:54:16;52.47;;;31.67;;
78848;SDS011;68197;41.864;21.942;2023-06-22T04:56:42;51.28;;;30.70;;
78848;SDS011;68197;41.864;21.942;2023-06-22T04:59:11;45.92;;;27.40;;
78848;SDS011;68197;41.864;21.942;2023-06-22T05:01:38;44.90;;;27.13;;
78848;SDS011;68197;41.864;21.942;2023-06-22T05:04:04;41.38;;;25.58;;
78848;SDS011;68197;41.864;21.942;2023-06-22T05:06:31;36.08;;;24.60;;
78848;SDS011;68197;41.864;21.942;2023-06-22T05:08:57;42.70;;;26.45;;
78848;SDS011;68197;41.864;21.942;2023-06-22T05:11:27;51.13;;;30.65;;
78848;SDS011;68197;41.864;21.942;2023-06-22T05:13:53;39.88;;;26.00;;
78848;SDS011;68197;41.864;21.942;2023-06-22T05:16:19;37.20;;;24.60;;
78848;SDS011;68197;41.864;21.942;2023-06-22T05:18:55;31.60;;;21.67;;
78848;SDS011;68197;41.864;21.942;2023-06-22T05:21:22;41.08;;;23.25;;
78848;SDS011;68197;41.864;21.942;2023-06-22T05:23:49;34.90;;;23.20;;
78848;SDS011;68197;41.864;21.942;2023-06-22T05:26:15;30.83;;;21.02;;
78848;SDS011;68197;41.864;21.942;2023-06-22T05:28:41;25.42;;;17.92;;
78848;SDS011;68197;41.864;21.942;2023-06-22T05:31:10;23.27;;;16.65;;
78848;SDS011;68197;41.864;21.942;2023-06-22T05:33:36;23.65;;;16.13;;
78848;SDS011;68197;41.864;21.942;2023-06-22T05:36:03;22.95;;;16.58;;
78848;SDS011;68197;41.864;21.942;2023-06-22T05:38:29;18.88;;;14.90;;
78848;SDS011;68197;41.864;21.942;2023-06-22T05:40:55;17.80;;;14.23;;
78848;SDS011;68197;41.864;21.942;2023-06-22T05:43:21;19.08;;;15.48;;
78848;SDS011;68197;41.864;21.942;2023-06-22T05:45:47;18.00;;;14.45;;
78848;SDS011;68197;41.864;21.942;2023-06-22T05:48:13;20.73;;;15.55;;
78848;SDS011;68197;41.864;21.942;2023-06-22T05:50:39;16.70;;;14.48;;
78848;SDS011;68197;41.864;21.942;2023-06-22T05:53:06;20.40;;;13.75;;
78848;SDS011;68197;41.864;21.942;2023-06-22T05:55:32;15.55;;;12.68;;
78848;SDS011;68197;41.864;21.942;2023-06-22T05:57:58;19.00;;;14.07;;
78848;SDS011;68197;41.864;21.942;2023-06-22T06:00:24;15.68;;;13.13;;
78848;SDS011;68197;41.864;21.942;2023-06-22T06:02:50;19.05;;;14.43;;
78848;SDS011;68197;41.864;21.942;2023-06-22T06:05:17;14.25;;;12.65;;
78848;SDS011;68197;41.864;21.942;2023-06-22T06:07:44;16.38;;;14.00;;
78848;SDS011;68197;41.864;21.942;2023-06-22T06:10:12;16.23;;;13.82;;
78848;SDS011;68197;41.864;21.942;2023-06-22T06:12:38;17.13;;;13.50;;
78848;SDS011;68197;41.864;21.942;2023-06-22T06:15:04;15.00;;;12.77;;
78848;SDS011;68197;41.864;21.942;2023-06-22T06:17:30;14.52;;;12.85;;
78848;SDS011;68197;41.864;21.942;2023-06-22T06:19:58;16.20;;;12.75;;
78848;SDS011;68197;41.864;21.942;2023-06-22T06:22:24;15.82;;;12.88;;
78848;SDS011;68197;41.864;21.942;2023-06-22T06:24:50;15.18;;;13.57;;
78848;SDS011;68197;41.864;21.942;2023-06-22T06:27:16;14.85;;;12.98;;
78848;SDS011;68197;41.864;21.942;2023-06-22T06:29:45;16.42;;;13.15;;
78848;SDS011;68197;41.864;21.942;2023-06-22T06:32:13;16.08;;;13.20;;
78848;SDS011;68197;41.864;21.942;2023-06-22T06:34:40;15.45;;;13.85;;
78848;SDS011;68197;41.864;21.942;2023-06-22T06:37:06;14.80;;;13.00;;
78848;SDS011;68197;41.864;21.942;2023-06-22T06:39:32;14.50;;;12.75;;
78848;SDS011;68197;41.864;21.942;2023-06-22T06:41:58;13.95;;;12.43;;
78848;SDS011;68197;41.864;21.942;2023-06-22T06:44:24;14.68;;;13.13;;
78848;SDS011;68197;41.864;21.942;2023-06-22T06:46:50;15.45;;;13.88;;
78848;SDS011;68197;41.864;21.942;2023-06-22T06:49:16;13.93;;;12.05;;
78848;SDS011;68197;41.864;21.942;2023-06-22T06:51:42;16.17;;;12.30;;
78848;SDS011;68197;41.864;21.942;2023-06-22T06:54:08;13.75;;;11.80;;
78848;SDS011;68197;41.864;21.942;2023-06-22T06:56:35;14.98;;;11.98;;
78848;SDS011;68197;41.864;21.942;2023-06-22T06:59:01;15.00;;;12.70;;
78848;SDS011;68197;41.864;21.942;2023-06-22T07:01:27;13.73;;;12.27;;
78848;SDS011;68197;41.864;21.942;2023-06-22T07:03:58;15.18;;;12.43;;
78848;SDS011;68197;41.864;21.942;2023-06-22T07:06:24;13.25;;;11.70;;
78848;SDS011;68197;41.864;21.942;2023-06-22T07:08:54;13.98;;;12.32;;
78848;SDS011;68197;41.864;21.942;2023-06-22T07:11:20;13.25;;;11.75;;
78848;SDS011;68197;41.864;21.942;2023-06-22T07:13:46;13.70;;;12.10;;
78848;SDS011;68197;41.864;21.942;2023-06-22T07:16:12;12.07;;;10.88;;
78848;SDS011;68197;41.864;21.942;2023-06-22T07:18:41;13.15;;;11.57;;
78848;SDS011;68197;41.864;21.942;2023-06-22T07:21:07;12.50;;;11.25;;
78848;SDS011;68197;41.864;21.942;2023-06-22T07:23:34;10.95;;;9.85;;
78848;SDS011;68197;41.864;21.942;2023-06-22T07:26:00;10.90;;;9.88;;
78848;SDS011;68197;41.864;21.942;2023-06-22T07:28:27;11.40;;;10.23;;
78848;SDS011;68197;41.864;21.942;2023-06-22T07:30:56;11.02;;;10.02;;
78848;SDS011;68197;41.864;21.942;2023-06-22T07:33:22;10.90;;;9.93;;
78848;SDS011;68197;41.864;21.942;2023-06-22T07:35:48;11.20;;;10.10;;
78848;SDS011;68197;41.864;21.942;2023-06-22T07:38:17;10.38;;;9.38;;
78848;SDS011;68197;41.864;21.942;2023-06-22T07:40:43;10.85;;;9.77;;
78848;SDS011;68197;41.864;21.942;2023-06-22T07:43:09;11.40;;;10.35;;
78848;SDS011;68197;41.864;21.942;2023-06-22T07:45:35;11.25;;;10.10;;
78848;SDS011;68197;41.864;21.942;2023-06-22T07:48:01;11.50;;;10.45;;
78848;SDS011;68197;41.864;21.942;2023-06-22T07:50:27;12.32;;;9.55;;
78848;SDS011;68197;41.864;21.942;2023-06-22T07:52:53;11.00;;;10.00;;
78848;SDS011;68197;41.864;21.942;2023-06-22T07:55:19;11.80;;;10.80;;
78848;SDS011;68197;41.864;21.942;2023-06-22T07:57:46;13.20;;;10.30;;
78848;SDS011;68197;41.864;21.942;2023-06-22T08:00:13;10.82;;;9.80;;
78848;SDS011;68197;41.864;21.942;2023-06-22T08:02:40;12.15;;;10.77;;
78848;SDS011;68197;41.864;21.942;2023-06-22T08:05:07;12.80;;;11.50;;
78848;SDS011;68197;41.864;21.942;2023-06-22T08:07:34;12.77;;;11.23;;
78848;SDS011;68197;41.864;21.942;2023-06-22T08:10:02;10.88;;;9.88;;
78848;SDS011;68197;41.864;21.942;2023-06-22T08:12:28;14.18;;;12.73;;
78848;SDS011;68197;41.864;21.942;2023-06-22T08:14:55;14.90;;;13.60;;
78848;SDS011;68197;41.864;21.942;2023-06-22T08:17:22;12.38;;;11.20;;
78848;SDS011;68197;41.864;21.942;2023-06-22T08:19:49;12.57;;;10.50;;
78848;SDS011;68197;41.864;21.942;2023-06-22T08:22:15;11.43;;;10.38;;
78848;SDS011;68197;41.864;21.942;2023-06-22T08:24:41;10.63;;;9.73;;
78848;SDS011;68197;41.864;21.942;2023-06-22T08:27:07;10.80;;;9.75;;
78848;SDS011;68197;41.864;21.942;2023-06-22T08:29:34;12.20;;;11.00;;
78848;SDS011;68197;41.864;21.942;2023-06-22T08:32:02;10.98;;;10.07;;
78848;SDS011;68197;41.864;21.942;2023-06-22T08:34:28;11.88;;;10.82;;
78848;SDS011;68197;41.864;21.942;2023-06-22T08:36:54;10.80;;;9.77;;
78848;SDS011;68197;41.864;21.942;2023-06-22T08:39:20;10.52;;;9.57;;
78848;SDS011;68197;41.864;21.942;2023-06-22T08:41:47;11.70;;;10.68;;
78848;SDS011;68197;41.864;21.942;2023-06-22T08:44:13;10.35;;;9.30;;
78848;SDS011;68197;41.864;21.942;2023-06-22T08:46:39;11.50;;;10.35;;
78848;SDS011;68197;41.864;21.942;2023-06-22T08:49:06;11.18;;;10.18;;
78848;SDS011;68197;41.864;21.942;2023-06-22T08:51:34;11.80;;;10.60;;
78848;SDS011;68197;41.864;21.942;2023-06-22T08:54:00;12.70;;;11.40;;
78848;SDS011;68197;41.864;21.942;2023-06-22T08:56:27;12.23;;;11.10;;
78848;SDS011;68197;41.864;21.942;2023-06-22T08:58:53;10.63;;;9.60;;
78848;SDS011;68197;41.864;21.942;2023-06-22T09:01:19;10.90;;;10.00;;
78848;SDS011;68197;41.864;21.942;2023-06-22T09:03:45;11.98;;;10.77;;
78848;SDS011;68197;41.864;21.942;2023-06-22T09:06:19;10.32;;;9.40;;
78848;SDS011;68197;41.864;21.942;2023-06-22T09:08:46;11.55;;;10.40;;
78848;SDS011;68197;41.864;21.942;2023-06-22T09:11:12;9.95;;;9.05;;
78848;SDS011;68197;41.864;21.942;2023-06-22T09:13:38;10.05;;;9.10;;
78848;SDS011;68197;41.864;21.942;2023-06-22T09:16:05;9.98;;;8.98;;
78848;SDS011;68197;41.864;21.942;2023-06-22T09:18:31;10.63;;;9.63;;
78848;SDS011;68197;41.864;21.942;2023-06-22T09:20:57;10.43;;;9.43;;
78848;SDS011;68197;41.864;21.942;2023-06-22T09:23:24;9.45;;;8.55;;
78848;SDS011;68197;41.864;21.942;2023-06-22T09:25:50;9.30;;;8.50;;
78848;SDS011;68197;41.864;21.942;2023-06-22T09:28:16;10.13;;;9.23;;
78848;SDS011;68197;41.864;21.942;2023-06-22T09:30:45;9.45;;;8.55;;
78848;SDS011;68197;41.864;21.942;2023-06-22T09:33:11;9.18;;;8.27;;
78848;SDS011;68197;41.864;21.942;2023-06-22T09:35:37;8.48;;;7.68;;
78848;SDS011;68197;41.864;21.942;2023-06-22T09:38:03;11.65;;;8.70;;
78848;SDS011;68197;41.864;21.942;2023-06-22T09:40:30;9.20;;;8.30;;
78848;SDS011;68197;41.864;21.942;2023-06-22T09:42:57;8.05;;;7.25;;
78848;SDS011;68197;41.864;21.942;2023-06-22T09:45:23;10.25;;;9.13;;
78848;SDS011;68197;41.864;21.942;2023-06-22T09:47:50;9.52;;;8.63;;
78848;SDS011;68197;41.864;21.942;2023-06-22T09:50:16;9.63;;;8.63;;
78848;SDS011;68197;41.864;21.942;2023-06-22T09:52:42;9.20;;;8.40;;
78848;SDS011;68197;41.864;21.942;2023-06-22T09:55:09;9.10;;;8.20;;
78848;SDS011;68197;41.864;21.942;2023-06-22T09:57:36;9.65;;;8.75;;
78848;SDS011;68197;41.864;21.942;2023-06-22T10:00:02;8.90;;;8.13;;
78848;SDS011;68197;41.864;21.942;2023-06-22T10:02:30;8.48;;;7.68;;
78848;SDS011;68197;41.864;21.942;2023-06-22T10:04:56;10.65;;;8.23;;
78848;SDS011;68197;41.864;21.942;2023-06-22T10:07:22;9.48;;;8.57;;
78848;SDS011;68197;41.864;21.942;2023-06-22T10:09:49;9.90;;;8.90;;
78848;SDS011;68197;41.864;21.942;2023-06-22T10:12:15;9.68;;;8.15;;
78848;SDS011;68197;41.864;21.942;2023-06-22T10:14:41;8.45;;;7.65;;
78848;SDS011;68197;41.864;21.942;2023-06-22T10:17:07;8.88;;;8.07;;
78848;SDS011;68197;41.864;21.942;2023-06-22T10:19:33;8.75;;;7.95;;
78848;SDS011;68197;41.864;21.942;2023-06-22T10:22:02;8.75;;;7.85;;
78848;SDS011;68197;41.864;21.942;2023-06-22T10:24:28;9.68;;;8.77;;
78848;SDS011;68197;41.864;21.942;2023-06-22T10:26:54;7.72;;;7.03;;
78848;SDS011;68197;41.864;21.942;2023-06-22T10:29:21;9.85;;;7.95;;
78848;SDS011;68197;41.864;21.942;2023-06-22T10:31:47;8.55;;;7.68;;
78848;SDS011;68197;41.864;21.942;2023-06-22T10:34:13;8.73;;;7.22;;
78848;SDS011;68197;41.864;21.942;2023-06-22T10:36:39;10.68;;;8.27;;
78848;SDS011;68197;41.864;21.942;2023-06-22T10:39:05;8.25;;;7.45;;
78848;SDS011;68197;41.864;21.942;2023-06-22T10:41:31;8.48;;;7.50;;
78848;SDS011;68197;41.864;21.942;2023-06-22T10:43:57;7.78;;;7.07;;
78848;SDS011;68197;41.864;21.942;2023-06-22T10:46:24;7.25;;;6.53;;
78848;SDS011;68197;41.864;21.942;2023-06-22T10:48:53;7.68;;;6.97;;
78848;SDS011;68197;41.864;21.942;2023-06-22T10:51:22;8.93;;;7.68;;
78848;SDS011;68197;41.864;21.942;2023-06-22T10:53:48;9.55;;;8.23;;
78848;SDS011;68197;41.864;21.942;2023-06-22T10:56:14;9.25;;;8.27;;
78848;SDS011;68197;41.864;21.942;2023-06-22T10:58:40;9.52;;;7.78;;
78848;SDS011;68197;41.864;21.942;2023-06-22T11:01:06;11.90;;;10.75;;
78848;SDS011;68197;41.864;21.942;2023-06-22T11:03:32;10.13;;;8.23;;
78848;SDS011;68197;41.864;21.942;2023-06-22T11:05:58;8.40;;;7.35;;
78848;SDS011;68197;41.864;21.942;2023-06-22T11:08:24;7.93;;;7.13;;
78848;SDS011;68197;41.864;21.942;2023-06-22T11:10:51;9.35;;;8.45;;
78848;SDS011;68197;41.864;21.942;2023-06-22T11:13:17;8.20;;;7.38;;
78848;SDS011;68197;41.864;21.942;2023-06-22T11:15:43;10.18;;;7.50;;
78848;SDS011;68197;41.864;21.942;2023-06-22T11:18:10;8.63;;;7.13;;
78848;SDS011;68197;41.864;21.942;2023-06-22T11:20:36;9.65;;;8.65;;
78848;SDS011;68197;41.864;21.942;2023-06-22T11:23:06;15.48;;;13.95;;
78848;SDS011;68197;41.864;21.942;2023-06-22T11:25:33;7.78;;;7.07;;
78848;SDS011;68197;41.864;21.942;2023-06-22T11:28:03;7.85;;;7.10;;
78848;SDS011;68197;41.864;21.942;2023-06-22T11:30:29;9.18;;;7.65;;
78848;SDS011;68197;41.864;21.942;2023-06-22T11:32:56;9.23;;;7.10;;
78848;SDS011;68197;41.864;21.942;2023-06-22T11:35:23;7.43;;;6.72;;
78848;SDS011;68197;41.864;21.942;2023-06-22T11:37:49;8.93;;;7.50;;
78848;SDS011;68197;41.864;21.942;2023-06-22T11:40:15;7.90;;;6.25;;
78848;SDS011;68197;41.864;21.942;2023-06-22T11:42:42;7.40;;;6.70;;
78848;SDS011;68197;41.864;21.942;2023-06-22T11:45:08;7.32;;;6.70;;
78848;SDS011;68197;41.864;21.942;2023-06-22T11:47:35;8.07;;;6.18;;
78848;SDS011;68197;41.864;21.942;2023-06-22T11:50:02;7.63;;;6.50;;
78848;SDS011;68197;41.864;21.942;2023-06-22T11:52:28;7.20;;;6.40;;
78848;SDS011;68197;41.864;21.942;2023-06-22T11:54:54;8.05;;;7.30;;
78848;SDS011;68197;41.864;21.942;2023-06-22T11:57:20;7.55;;;6.85;;
78848;SDS011;68197;41.864;21.942;2023-06-22T11:59:46;11.30;;;10.02;;
78848;SDS011;68197;41.864;21.942;2023-06-22T12:02:12;8.70;;;7.30;;
78848;SDS011;68197;41.864;21.942;2023-06-22T12:04:38;7.95;;;7.15;;
78848;SDS011;68197;41.864;21.942;2023-06-22T12:07:04;7.60;;;6.85;;
78848;SDS011;68197;41.864;21.942;2023-06-22T12:09:30;7.60;;;6.90;;
78848;SDS011;68197;41.864;21.942;2023-06-22T12:11:57;9.85;;;6.65;;
78848;SDS011;68197;41.864;21.942;2023-06-22T12:14:23;7.30;;;6.60;;
78848;SDS011;68197;41.864;21.942;2023-06-22T12:16:49;7.25;;;6.55;;
78848;SDS011;68197;41.864;21.942;2023-06-22T12:19:15;7.03;;;6.30;;
78848;SDS011;68197;41.864;21.942;2023-06-22T12:21:41;7.53;;;6.60;;
78848;SDS011;68197;41.864;21.942;2023-06-22T12:24:10;8.98;;;8.18;;
78848;SDS011;68197;41.864;21.942;2023-06-22T12:26:36;7.32;;;6.30;;
78848;SDS011;68197;41.864;21.942;2023-06-22T12:29:02;8.75;;;6.72;;
78848;SDS011;68197;41.864;21.942;2023-06-22T12:31:28;7.13;;;6.35;;
78848;SDS011;68197;41.864;21.942;2023-06-22T12:33:54;6.63;;;6.03;;
78848;SDS011;68197;41.864;21.942;2023-06-22T12:36:21;7.13;;;6.43;;
78848;SDS011;68197;41.864;21.942;2023-06-22T12:38:47;6.60;;;5.80;;
78848;SDS011;68197;41.864;21.942;2023-06-22T12:41:13;6.30;;;5.47;;
78848;SDS011;68197;41.864;21.942;2023-06-22T12:43:40;7.00;;;5.85;;
78848;SDS011;68197;41.864;21.942;2023-06-22T12:46:06;5.47;;;4.97;;
78848;SDS011;68197;41.864;21.942;2023-06-22T12:48:32;6.82;;;5.57;;
78848;SDS011;68197;41.864;21.942;2023-06-22T12:50:58;6.05;;;5.32;;
78848;SDS011;68197;41.864;21.942;2023-06-22T12:53:24;6.63;;;6.03;;
78848;SDS011;68197;41.864;21.942;2023-06-22T12:55:52;6.32;;;5.70;;
78848;SDS011;68197;41.864;21.942;2023-06-22T12:58:18;6.40;;;5.55;;
78848;SDS011;68197;41.864;21.942;2023-06-22T13:00:44;5.63;;;4.93;;
78848;SDS011;68197;41.864;21.942;2023-06-22T13:03:11;6.97;;;6.28;;
78848;SDS011;68197;41.864;21.942;2023-06-22T13:05:37;5.78;;;5.10;;
78848;SDS011;68197;41.864;21.942;2023-06-22T13:08:03;6.18;;;4.68;;
78848;SDS011;68197;41.864;21.942;2023-06-22T13:10:29;5.97;;;5.47;;
78848;SDS011;68197;41.864;21.942;2023-06-22T13:12:55;5.45;;;4.95;;
78848;SDS011;68197;41.864;21.942;2023-06-22T13:15:26;5.82;;;4.88;;
78848;SDS011;68197;41.864;21.942;2023-06-22T13:17:52;6.60;;;5.45;;
78848;SDS011;68197;41.864;21.942;2023-06-22T13:20:18;5.70;;;4.40;;
78848;SDS011;68197;41.864;21.942;2023-06-22T13:22:44;5.50;;;4.32;;
78848;SDS011;68197;41.864;21.942;2023-06-22T13:25:10;6.07;;;5.47;;
78848;SDS011;68197;41.864;21.942;2023-06-22T13:30:10;6.03;;;4.70;;
78848;SDS011;68197;41.864;21.942;2023-06-22T13:32:36;5.30;;;4.45;;
78848;SDS011;68197;41.864;21.942;2023-06-22T13:35:02;6.82;;;4.65;;
78848;SDS011;68197;41.864;21.942;2023-06-22T13:37:28;5.40;;;4.65;;
78848;SDS011;68197;41.864;21.942;2023-06-22T13:39:55;5.00;;;4.47;;
78848;SDS011;68197;41.864;21.942;2023-06-22T13:42:27;5.18;;;4.32;;
78848;SDS011;68197;41.864;21.942;2023-06-22T13:44:53;5.20;;;4.65;;
78848;SDS011;68197;41.864;21.942;2023-06-22T13:47:19;5.45;;;4.80;;
78848;SDS011;68197;41.864;21.942;2023-06-22T13:49:45;5.15;;;4.65;;
78848;SDS011;68197;41.864;21.942;2023-06-22T13:52:11;4.63;;;4.03;;
78848;SDS011;68197;41.864;21.942;2023-06-22T13:54:38;5.00;;;4.50;;
78848;SDS011;68197;41.864;21.942;2023-06-22T13:57:04;6.10;;;4.38;;
78848;SDS011;68197;41.864;21.942;2023-06-22T13:59:30;6.00;;;4.32;;
78848;SDS011;68197;41.864;21.942;2023-06-22T14:01:56;5.47;;;4.68;;
78848;SDS011;68197;41.864;21.942;2023-06-22T14:04:23;5.45;;;4.95;;
78848;SDS011;68197;41.864;21.942;2023-06-22T14:06:49;4.85;;;3.83;;
78848;SDS011;68197;41.864;21.942;2023-06-22T14:09:15;6.78;;;5.20;;
78848;SDS011;68197;41.864;21.942;2023-06-22T14:11:41;6.38;;;4.35;;
78848;SDS011;68197;41.864;21.942;2023-06-22T14:14:07;5.30;;;4.70;;
78848;SDS011;68197;41.864;21.942;2023-06-22T14:16:33;5.07;;;4.57;;
78848;SDS011;68197;41.864;21.942;2023-06-22T14:19:00;4.55;;;4.03;;
78848;SDS011;68197;41.864;21.942;2023-06-22T14:21:26;6.07;;;5.07;;
78848;SDS011;68197;41.864;21.942;2023-06-22T14:23:52;5.30;;;4.30;;
78848;SDS011;68197;41.864;21.942;2023-06-22T14:26:18;5.82;;;5.22;;
78848;SDS011;68197;41.864;21.942;2023-06-22T14:28:45;7.05;;;4.68;;
78848;SDS011;68197;41.864;21.942;2023-06-22T14:31:18;5.97;;;4.82;;